Time;durP1;ratioP1;P1;durP2;ratioP2;P2;SDS_P1;SDS_P2;PMS_P1;PMS_P2;Temp;Humidity;BMP_temperature;BMP_pressure;BME280_temperature;BME280_humidity;BME280_pressure;Samples;Min_cycle;Max_cycle;Signal;HPM_P1;HPM_P2
2022/07/23 00:00:49;;;;;;;0.37;0.37;;;21.00;98.00;;;;;;4947064;29;20042;-83
2022/07/23 00:03:15;;;;;;;0.35;0.30;;;20.90;98.50;;;;;;4948039;29;20034;-83
2022/07/23 00:05:41;;;;;;;1.00;0.50;;;20.80;98.60;;;;;;4947357;29;20043;-83
2022/07/23 00:08:07;;;;;;;0.22;0.22;;;20.80;99.20;;;;;;4947850;29;20041;-83
2022/07/23 00:10:34;;;;;;;5.18;0.40;;;20.70;99.80;;;;;;4930384;29;20565;-83
2022/07/23 00:13:00;;;;;;;0.38;0.38;;;20.60;99.90;;;;;;4947747;29;20719;-83
2022/07/23 00:15:25;;;;;;;3.40;1.10;;;20.40;99.90;;;;;;4952287;28;20035;-81
2022/07/23 00:17:51;;;;;;;0.10;0.10;;;20.40;99.90;;;;;;4929758;29;20051;-81
2022/07/23 00:20:17;;;;;;;0.40;0.33;;;20.60;99.90;;;;;;4947183;29;20031;-81
2022/07/23 00:22:48;;;;;;;0.03;0.03;;;20.70;99.90;;;;;;4947445;29;20035;-81
2022/07/23 00:25:14;;;;;;;0.65;0.65;;;20.40;99.90;;;;;;4946128;29;20030;-80
2022/07/23 00:27:39;;;;;;;0.33;0.33;;;20.30;99.90;;;;;;4945762;28;20043;-80
2022/07/23 00:30:06;;;;;;;2.40;0.53;;;20.30;99.90;;;;;;4947217;29;20302;-79
2022/07/23 00:32:31;;;;;;;0.60;0.60;;;20.40;99.90;;;;;;4947271;29;20027;-79
2022/07/23 00:34:57;;;;;;;1.07;0.97;;;20.10;99.90;;;;;;4946710;29;20759;-80
2022/07/23 00:37:22;;;;;;;0.10;0.10;;;20.20;99.90;;;;;;4947134;29;20860;-80
2022/07/23 00:39:48;;;;;;;2.90;1.17;;;20.20;99.90;;;;;;4947562;29;20078;-85
2022/07/23 00:42:14;;;;;;;0.57;0.30;;;20.30;99.90;;;;;;4946383;29;20628;-85
2022/07/23 00:44:39;;;;;;;0.30;0.17;;;20.20;99.90;;;;;;4947449;29;20109;-84
2022/07/23 00:47:05;;;;;;;0.10;0.10;;;20.20;99.90;;;;;;4928847;29;20050;-84
2022/07/23 00:49:31;;;;;;;0.77;0.77;;;20.10;99.90;;;;;;4947358;29;20527;-79
2022/07/23 00:52:00;;;;;;;0.50;0.50;;;20.10;99.90;;;;;;4946582;29;20737;-79
2022/07/23 00:54:27;;;;;;;0.00;0.00;;;20.10;99.90;;;;;;4945854;29;20039;-79
2022/07/23 00:56:53;;;;;;;;;;;20.20;99.90;;;;;;4929209;29;20043;-79
2022/07/23 00:59:18;;;;;;;0.43;0.43;;;20.20;99.90;;;;;;4947517;29;19977;-79
2022/07/23 01:01:46;;;;;;;0.30;0.30;;;20.20;99.90;;;;;;4946121;29;20054;-80
2022/07/23 01:04:12;;;;;;;0.35;0.20;;;20.20;99.90;;;;;;4947436;29;20031;-80
2022/07/23 01:06:38;;;;;;;0.07;0.07;;;20.30;99.90;;;;;;4913544;29;20463;-77
2022/07/23 01:09:06;;;;;;;0.20;0.20;;;20.40;99.90;;;;;;4946547;29;20083;-77
2022/07/23 01:11:36;;;;;;;0.35;0.35;;;20.30;99.90;;;;;;4946069;29;20035;-77
2022/07/23 01:14:13;;;;;;;0.32;0.32;;;20.50;99.90;;;;;;4948029;28;20035;-78
2022/07/23 01:16:40;;;;;;;0.85;0.57;;;20.60;99.90;;;;;;4946015;29;20050;-77
2022/07/23 01:19:06;;;;;;;0.17;0.13;;;20.50;99.90;;;;;;4945139;29;20507;-78
2022/07/23 01:21:37;;;;;;;0.30;0.30;;;20.60;99.90;;;;;;4945029;29;20087;-78
2022/07/23 01:24:04;;;;;;;0.65;0.65;;;20.70;99.90;;;;;;4946224;29;20590;-78
2022/07/23 01:26:30;;;;;;;0.38;0.38;;;20.80;99.90;;;;;;4945337;29;20027;-78
2022/07/23 01:28:56;;;;;;;0.10;0.10;;;20.80;99.90;;;;;;4946282;29;20035;-79
2022/07/23 01:31:22;;;;;;;0.35;0.35;;;20.80;99.90;;;;;;4946518;29;20027;-78
2022/07/23 01:33:48;;;;;;;0.75;0.68;;;20.90;99.90;;;;;;4946106;29;20415;-79
2022/07/23 01:36:13;;;;;;;0.93;0.67;;;20.80;99.90;;;;;;4928337;29;20027;-79
2022/07/23 01:38:39;;;;;;;1.70;1.03;;;20.80;99.90;;;;;;4927873;29;20465;-79
2022/07/23 01:41:05;;;;;;;0.47;0.47;;;20.70;99.90;;;;;;4946550;29;20634;-79
2022/07/23 01:43:30;;;;;;;0.37;0.37;;;20.80;99.90;;;;;;4946837;29;20031;-79
2022/07/23 01:45:56;;;;;;;1.40;0.43;;;20.80;99.90;;;;;;4945565;29;20047;-79
2022/07/23 01:48:22;;;;;;;0.20;0.10;;;20.70;99.90;;;;;;4946272;29;20050;-81
2022/07/23 01:50:47;;;;;;;0.90;0.67;;;20.80;99.90;;;;;;4944144;29;20024;-80
2022/07/23 01:53:14;;;;;;;0.30;0.17;;;20.70;99.90;;;;;;4945254;29;20038;-80
2022/07/23 01:55:39;;;;;;;0.28;0.28;;;20.60;99.90;;;;;;4943590;29;20039;-80
2022/07/23 01:58:05;;;;;;;0.93;0.93;;;20.60;99.90;;;;;;4925941;29;20502;-80
2022/07/23 02:00:31;;;;;;;0.30;0.30;;;20.70;99.90;;;;;;4945828;29;20026;-81
2022/07/23 02:03:00;;;;;;;0.10;0.10;;;20.70;99.90;;;;;;4945332;29;20569;-79
2022/07/23 02:05:28;;;;;;;0.45;0.40;;;20.70;99.90;;;;;;4945415;29;20023;-80
2022/07/23 02:07:54;;;;;;;0.43;0.35;;;20.70;99.90;;;;;;4944804;29;20063;-80
2022/07/23 02:10:20;;;;;;;0.68;0.50;;;20.70;99.90;;;;;;4945206;29;20049;-80
2022/07/23 02:12:46;;;;;;;0.47;0.47;;;20.60;99.90;;;;;;4945481;29;20423;-80
2022/07/23 02:15:12;;;;;;;0.10;0.10;;;20.60;99.90;;;;;;4947903;28;20049;-80
2022/07/23 02:17:38;;;;;;;0.40;0.40;;;20.60;99.90;;;;;;4944773;29;20043;-81
2022/07/23 02:20:04;;;;;;;0.10;0.10;;;20.70;99.90;;;;;;4945360;29;20494;-80
2022/07/23 02:22:30;;;;;;;0.38;0.38;;;20.70;99.90;;;;;;4944819;29;20860;-80
2022/07/23 02:24:56;;;;;;;0.20;0.20;;;20.70;99.90;;;;;;4945078;29;20039;-80
2022/07/23 02:27:22;;;;;;;0.00;0.00;;;20.70;99.90;;;;;;4943663;29;20031;-80
2022/07/23 02:29:48;;;;;;;0.25;0.20;;;20.70;99.90;;;;;;4944025;29;20047;-81
2022/07/23 02:32:14;;;;;;;0.77;0.43;;;20.50;99.90;;;;;;4944669;29;20779;-80
2022/07/23 02:34:40;;;;;;;0.00;0.00;;;20.40;99.90;;;;;;4944442;29;20035;-81
2022/07/23 02:37:05;;;;;;;0.20;0.20;;;20.40;99.90;;;;;;4927482;29;20086;-80
2022/07/23 02:39:31;;;;;;;0.00;0.00;;;20.30;99.90;;;;;;4945407;29;20415;-81
2022/07/23 02:41:57;;;;;;;0.30;0.30;;;20.00;99.90;;;;;;4944908;29;20034;-81
2022/07/23 02:44:23;;;;;;;0.00;0.00;;;20.00;99.90;;;;;;4944467;29;20031;-80
2022/07/23 02:46:48;;;;;;;0.13;0.13;;;19.90;99.90;;;;;;4944817;29;20035;-81
2022/07/23 02:49:14;;;;;;;0.63;0.50;;;19.90;99.90;;;;;;4927442;29;20043;-78
2022/07/23 02:51:40;;;;;;;0.10;0.10;;;19.90;99.90;;;;;;4944365;28;20031;-78
2022/07/23 02:54:05;;;;;;;0.17;0.17;;;19.70;99.90;;;;;;4944575;29;20023;-78
2022/07/23 02:56:31;;;;;;;0.20;0.20;;;19.60;99.90;;;;;;4944380;29;20043;-77
2022/07/23 02:58:57;;;;;;;0.60;0.47;;;19.60;99.90;;;;;;4944917;28;20117;-77
2022/07/23 03:01:22;;;;;;;0.20;0.20;;;19.60;99.90;;;;;;4942182;29;20125;-77
2022/07/23 03:03:48;;;;;;;0.40;0.40;;;19.60;99.90;;;;;;4927771;29;20031;-77
2022/07/23 03:06:14;;;;;;;0.50;0.33;;;19.50;99.90;;;;;;4944411;29;20031;-78
2022/07/23 03:08:39;;;;;;;0.97;0.53;;;19.50;99.90;;;;;;4943528;29;20538;-78
2022/07/23 03:11:10;;;;;;;0.17;0.17;;;19.70;99.90;;;;;;4938967;29;20066;-77
2022/07/23 03:13:39;;;;;;;0.20;0.20;;;19.90;99.90;;;;;;4943872;28;20035;-78
2022/07/23 03:16:05;;;;;;;0.43;0.43;;;19.80;99.90;;;;;;4949494;28;20488;-78
2022/07/23 03:18:31;;;;;;;0.20;0.20;;;19.80;99.90;;;;;;4926581;29;20486;-77
2022/07/23 03:20:57;;;;;;;1.30;0.53;;;19.80;99.90;;;;;;4944988;29;20678;-77
2022/07/23 03:23:22;;;;;;;0.50;0.50;;;19.70;99.90;;;;;;4945133;29;20031;-79
2022/07/23 03:25:48;;;;;;;0.30;0.30;;;19.80;99.90;;;;;;4944535;29;20047;-79
2022/07/23 03:28:18;;;;;;;0.10;0.10;;;19.70;99.90;;;;;;4944243;29;20043;-78
2022/07/23 03:30:47;;;;;;;2.38;1.65;;;19.70;99.90;;;;;;4943418;29;20624;-79
2022/07/23 03:33:14;;;;;;;0.20;0.20;;;19.40;99.90;;;;;;4943004;29;20050;-78
2022/07/23 03:35:40;;;;;;;0.45;0.45;;;19.30;99.90;;;;;;4944492;29;20030;-79
2022/07/23 03:38:05;;;;;;;0.00;0.00;;;19.10;99.90;;;;;;4943590;29;20035;-79
2022/07/23 03:40:31;;;;;;;0.50;0.30;;;19.00;99.90;;;;;;4944703;29;20035;-79
2022/07/23 03:42:57;;;;;;;0.20;0.17;;;18.80;99.90;;;;;;4943061;29;20031;-79
2022/07/23 03:45:22;;;;;;;0.20;0.20;;;18.60;99.90;;;;;;4944742;29;20415;-79
2022/07/23 03:47:48;;;;;;;0.13;0.13;;;18.50;99.90;;;;;;4944142;29;20059;-81
2022/07/23 03:50:14;;;;;;;0.10;0.10;;;18.30;99.90;;;;;;4942877;29;20047;-81
2022/07/23 03:52:40;;;;;;;0.40;0.40;;;18.30;99.90;;;;;;4942985;29;20035;-81
2022/07/23 03:55:06;;;;;;;0.23;0.23;;;18.20;99.90;;;;;;4926202;29;20039;-81
2022/07/23 03:57:32;;;;;;;0.32;0.32;;;18.00;99.90;;;;;;4942001;29;20114;-80
2022/07/23 03:59:58;;;;;;;0.10;0.10;;;17.80;99.90;;;;;;4944026;29;20078;-80
2022/07/23 04:02:24;;;;;;;0.20;0.20;;;17.90;99.90;;;;;;4944351;28;20039;-80
2022/07/23 04:04:49;;;;;;;1.30;0.40;;;17.90;99.90;;;;;;4948039;29;20043;-79
2022/07/23 04:07:17;;;;;;;0.20;0.20;;;17.90;99.90;;;;;;4930230;29;20062;-80
2022/07/23 04:09:43;;;;;;;0.35;0.32;;;18.00;99.90;;;;;;4929290;29;20035;-81
2022/07/23 04:12:09;;;;;;;0.17;0.10;;;17.90;99.90;;;;;;4948152;29;20067;-80
2022/07/23 04:14:35;;;;;;;0.77;0.77;;;17.80;99.90;;;;;;4948319;28;20117;-84
2022/07/23 04:17:01;;;;;;;1.77;1.38;;;18.10;99.90;;;;;;4947377;29;20538;-85
2022/07/23 04:19:27;;;;;;;1.53;1.03;;;18.20;99.90;;;;;;4949468;29;20127;-91
2022/07/23 04:21:52;;;;;;;0.20;0.20;;;18.30;99.90;;;;;;4932265;29;20397;-89
2022/07/23 04:24:18;;;;;;;0.10;0.10;;;18.10;99.90;;;;;;4949080;29;20623;-90
2022/07/23 04:26:45;;;;;;;0.27;0.27;;;18.20;99.90;;;;;;4947529;29;20892;-86
2022/07/23 04:29:11;;;;;;;0.10;0.10;;;18.10;99.90;;;;;;4946825;29;20112;-86
2022/07/23 04:31:36;;;;;;;0.33;0.33;;;18.20;99.90;;;;;;4927472;29;20384;-88
2022/07/23 04:34:02;;;;;;;11.03;1.20;;;18.00;99.90;;;;;;4947848;29;20074;-88
2022/07/23 04:36:28;;;;;;;0.53;0.50;;;18.10;99.90;;;;;;4948328;29;20035;-84
2022/07/23 04:38:55;;;;;;;1.03;0.97;;;17.90;99.90;;;;;;4945019;29;20303;-84
2022/07/23 04:41:20;;;;;;;1.67;0.95;;;18.00;99.90;;;;;;4948113;29;20027;-83
2022/07/23 04:43:46;;;;;;;0.20;0.20;;;18.10;99.90;;;;;;4930581;29;20050;-85
2022/07/23 04:46:12;;;;;;;1.73;0.93;;;18.30;99.90;;;;;;4942927;29;20049;-84
2022/07/23 04:48:38;;;;;;;0.73;0.70;;;18.20;99.90;;;;;;4945367;29;20043;-83
2022/07/23 04:51:04;;;;;;;0.30;0.30;;;18.20;99.90;;;;;;4944419;29;20507;-84
2022/07/23 04:53:30;;;;;;;0.30;0.30;;;18.10;99.90;;;;;;4945880;29;20122;-84
2022/07/23 04:55:55;;;;;;;0.43;0.43;;;18.30;99.90;;;;;;4946175;29;20478;-84
2022/07/23 04:58:21;;;;;;;0.27;0.27;;;18.30;99.90;;;;;;4948012;29;20102;-84
2022/07/23 05:00:47;;;;;;;0.10;0.10;;;18.50;99.90;;;;;;4945248;29;20110;-84
2022/07/23 05:03:13;;;;;;;0.63;0.20;;;18.60;99.90;;;;;;4946757;29;20042;-84
2022/07/23 05:05:39;;;;;;;0.10;0.10;;;18.70;99.90;;;;;;4928349;29;20090;-86
2022/07/23 05:08:05;;;;;;;0.37;0.37;;;18.80;99.90;;;;;;4945363;29;20118;-84
2022/07/23 05:10:30;;;;;;;0.17;0.17;;;18.80;99.90;;;;;;4946080;29;20499;-86
2022/07/23 05:12:56;;;;;;;4.03;1.23;;;18.80;99.90;;;;;;4946659;29;20037;-85
2022/07/23 05:15:22;;;;;;;0.23;0.23;;;18.70;99.90;;;;;;4943330;28;20041;-84
2022/07/23 05:17:48;;;;;;;0.10;0.10;;;18.80;99.90;;;;;;4946782;29;20051;-82
2022/07/23 05:20:13;;;;;;;0.47;0.47;;;18.80;99.90;;;;;;4945667;29;20591;-83
2022/07/23 05:22:39;;;;;;;0.43;0.43;;;18.60;99.90;;;;;;4944215;29;20499;-83
2022/07/23 05:25:06;;;;;;;0.30;0.30;;;18.70;99.90;;;;;;4946362;29;20466;-89
2022/07/23 05:27:32;;;;;;;0.25;0.25;;;18.80;99.90;;;;;;4943150;29;20027;-85
2022/07/23 05:29:57;;;;;;;0.37;0.37;;;18.80;99.90;;;;;;4945705;29;20062;-87
2022/07/23 05:32:23;;;;;;;0.30;0.30;;;19.10;99.90;;;;;;4944995;29;20295;-88
2022/07/23 05:34:49;;;;;;;0.77;0.50;;;18.90;99.90;;;;;;4927723;29;20043;-89
2022/07/23 05:37:15;;;;;;;0.10;0.10;;;19.40;99.90;;;;;;4946198;29;20035;-89
2022/07/23 05:39:41;;;;;;;0.17;0.17;;;20.00;99.90;;;;;;4946127;29;20027;-88
2022/07/23 05:42:07;;;;;;;0.57;0.57;;;21.80;99.90;;;;;;4946043;29;20081;-89
2022/07/23 05:44:33;;;;;;;0.43;0.43;;;22.60;99.90;;;;;;4926635;29;20068;-89
2022/07/23 05:46:58;;;;;;;0.10;0.10;;;21.40;99.90;;;;;;4927940;29;20048;-89
2022/07/23 05:49:24;;;;;;;0.53;0.53;;;20.50;99.90;;;;;;4945457;29;20050;-88
2022/07/23 05:51:50;;;;;;;0.10;0.10;;;20.10;99.90;;;;;;4945662;29;20399;-90
2022/07/23 05:54:16;;;;;;;2.70;1.30;;;19.90;99.90;;;;;;4928884;29;20043;-85
2022/07/23 05:56:41;;;;;;;0.97;0.57;;;19.80;99.90;;;;;;4944859;29;20116;-82
2022/07/23 05:59:07;;;;;;;0.47;0.37;;;19.70;99.90;;;;;;4945998;29;20035;-83
2022/07/23 06:01:33;;;;;;;0.53;0.30;;;19.90;99.90;;;;;;4944143;29;20391;-80
2022/07/23 06:03:58;;;;;;;0.40;0.17;;;20.10;99.90;;;;;;4945845;29;20943;-81
2022/07/23 06:06:24;;;;;;;0.20;0.20;;;20.00;99.90;;;;;;4942579;29;20039;-80
2022/07/23 06:08:50;;;;;;;0.40;0.40;;;20.10;99.90;;;;;;4944716;29;20051;-81
2022/07/23 06:11:15;;;;;;;3.07;1.17;;;20.40;99.90;;;;;;4928399;29;20064;-81
2022/07/23 06:13:41;;;;;;;1.13;1.03;;;20.40;99.90;;;;;;4945477;28;20056;-81
2022/07/23 06:16:07;;;;;;;0.10;0.10;;;21.20;99.90;;;;;;4927623;29;20515;-81
2022/07/23 06:18:32;;;;;;;0.30;0.30;;;24.60;96.00;;;;;;4945112;29;20090;-81
2022/07/23 06:20:58;;;;;;;0.53;0.40;;;25.40;90.30;;;;;;4944529;29;20031;-82
2022/07/23 06:23:23;;;;;;;0.10;0.10;;;25.60;85.30;;;;;;4944009;29;20303;-79
2022/07/23 06:25:49;;;;;;;0.43;0.40;;;23.60;91.90;;;;;;4944396;28;20763;-79
2022/07/23 06:28:15;;;;;;;0.10;0.10;;;21.80;98.70;;;;;;4945442;29;20813;-81
2022/07/23 06:30:41;;;;;;;6.37;1.93;;;21.30;99.90;;;;;;4944956;28;20533;-82
2022/07/23 06:33:07;;;;;;;0.32;0.32;;;20.90;99.90;;;;;;4944498;28;20290;-82
2022/07/23 06:35:33;;;;;;;7.40;0.43;;;21.00;99.90;;;;;;4943820;28;20212;-81
2022/07/23 06:37:59;;;;;;;0.00;0.00;;;21.00;99.90;;;;;;4942523;29;20100;-81
2022/07/23 06:40:25;;;;;;;1.00;0.73;;;21.00;99.90;;;;;;4944587;29;20558;-81
2022/07/23 06:42:51;;;;;;;0.65;0.65;;;21.20;99.90;;;;;;4943221;28;20522;-81
2022/07/23 06:45:17;;;;;;;0.77;0.50;;;20.90;99.90;;;;;;4945776;29;20038;-81
2022/07/23 06:47:42;;;;;;;0.28;0.28;;;20.90;99.90;;;;;;4944934;28;20027;-78
2022/07/23 06:50:09;;;;;;;0.20;0.20;;;20.90;99.90;;;;;;4942806;29;20565;-78
2022/07/23 06:52:35;;;;;;;0.40;0.40;;;21.30;99.90;;;;;;4944211;28;20491;-77
2022/07/23 06:55:00;;;;;;;0.30;0.30;;;21.50;99.90;;;;;;4944991;29;20032;-79
2022/07/23 06:57:26;;;;;;;0.03;0.03;;;22.20;99.90;;;;;;4944401;29;20026;-79
2022/07/23 06:59:52;;;;;;;0.40;0.40;;;22.80;99.60;;;;;;4944950;29;20031;-79
2022/07/23 07:02:18;;;;;;;0.20;0.20;;;23.40;96.70;;;;;;4944264;29;20031;-79
2022/07/23 07:04:44;;;;;;;3.93;1.43;;;23.60;94.80;;;;;;4944573;29;20090;-78
2022/07/23 07:07:09;;;;;;;0.33;0.33;;;25.60;91.10;;;;;;4944591;29;20054;-79
2022/07/23 07:09:35;;;;;;;0.40;0.35;;;28.80;77.70;;;;;;4942683;29;20051;-79
2022/07/23 07:12:01;;;;;;;1.08;0.40;;;29.40;71.10;;;;;;4944330;29;20028;-80
2022/07/23 07:14:27;;;;;;;0.20;0.20;;;30.90;67.70;;;;;;4945186;28;20031;-80
2022/07/23 07:16:53;;;;;;;0.47;0.30;;;31.70;64.00;;;;;;4934255;29;20527;-80
2022/07/23 07:19:18;;;;;;;0.30;0.28;;;31.10;63.00;;;;;;4925068;29;20035;-79
2022/07/23 07:21:44;;;;;;;0.55;0.40;;;31.80;60.70;;;;;;4925117;29;20024;-77
2022/07/23 07:24:10;;;;;;;;;;;32.10;60.50;;;;;;4911191;29;20039;-78
2022/07/23 07:26:35;;;;;;;0.57;0.57;;;31.80;60.20;;;;;;4924386;29;19914;-79
2022/07/23 07:29:01;;;;;;;;;;;32.10;59.70;;;;;;4923543;29;20118;-79
2022/07/23 07:31:27;;;;;;;0.08;0.08;;;33.10;57.20;;;;;;4930055;29;19914;-78
2022/07/23 07:33:52;;;;;;;1.77;0.73;;;31.30;59.50;;;;;;4926539;29;20047;-78
2022/07/23 07:36:18;;;;;;;;;;;29.40;63.80;;;;;;4929922;28;20896;-78
2022/07/23 07:38:44;;;;;;;0.32;0.32;;;28.70;65.10;;;;;;4924650;29;20573;-77
2022/07/23 07:41:12;;;;;;;0.40;0.40;;;28.60;65.60;;;;;;4922596;29;20651;-77
2022/07/23 07:43:37;;;;;;;0.10;0.10;;;27.20;69.20;;;;;;4932564;29;20122;-82
2022/07/23 07:46:04;;;;;;;1.77;0.30;;;26.20;72.00;;;;;;4931584;29;20039;-78
2022/07/23 07:48:29;;;;;;;;;;;25.80;73.20;;;;;;4927545;29;20106;-77
2022/07/23 07:50:55;;;;;;;0.00;0.00;;;25.60;75.30;;;;;;4930575;29;19914;-78
2022/07/23 07:53:21;;;;;;;0.95;0.40;;;25.60;74.40;;;;;;4928522;29;20042;-77
2022/07/23 07:55:47;;;;;;;0.20;0.20;;;26.60;73.30;;;;;;4922683;29;20041;-78
2022/07/23 07:58:12;;;;;;;0.60;0.60;;;26.70;73.00;;;;;;4929305;29;20032;-77
2022/07/23 08:00:38;;;;;;;1.92;0.28;;;26.10;72.50;;;;;;4929778;29;20043;-77
2022/07/23 08:03:03;;;;;;;0.25;0.17;;;25.60;72.70;;;;;;4929741;29;20035;-78
2022/07/23 08:05:30;;;;;;;0.08;0.08;;;28.30;69.80;;;;;;4911057;29;20045;-77
2022/07/23 08:07:57;;;;;;;0.40;0.40;;;30.50;64.30;;;;;;4928912;29;20087;-77
2022/07/23 08:10:25;;;;;;;0.40;0.40;;;32.50;59.80;;;;;;4928346;29;20040;-77
2022/07/23 08:12:53;;;;;;;0.32;0.32;;;31.80;61.00;;;;;;4929625;29;20519;-79
2022/07/23 08:15:20;;;;;;;0.10;0.10;;;32.90;57.60;;;;;;4912116;29;20039;-78
2022/07/23 08:17:47;;;;;;;0.40;0.40;;;29.40;61.90;;;;;;4916183;29;20526;-78
2022/07/23 08:20:15;;;;;;;0.00;0.00;;;28.30;65.20;;;;;;4914499;29;20040;-77
2022/07/23 08:22:51;;;;;;;0.43;0.43;;;31.50;61.70;;;;;;4930255;29;20118;-77
2022/07/23 08:25:40;;;;;;;;;;;33.70;55.70;;;;;;4929239;29;20036;-76
2022/07/23 08:28:08;;;;;;;0.20;0.20;;;34.40;54.60;;;;;;4924508;29;19965;-77
2022/07/23 08:30:34;;;;;;;0.10;0.10;;;34.70;53.60;;;;;;4926734;29;20107;-77
2022/07/23 08:33:04;;;;;;;0.35;0.25;;;34.70;53.30;;;;;;4931130;29;20042;-78
2022/07/23 08:35:31;;;;;;;0.50;0.45;;;35.50;53.00;;;;;;4908975;29;20031;-79
2022/07/23 08:37:58;;;;;;;6.57;2.00;;;34.60;52.50;;;;;;4927524;29;20150;-80
2022/07/23 08:40:27;;;;;;;0.40;0.40;;;30.50;57.50;;;;;;4928491;29;20055;-78
2022/07/23 08:42:53;;;;;;;0.10;0.10;;;27.90;63.10;;;;;;4927979;29;20035;-77
2022/07/23 08:45:20;;;;;;;5.38;2.53;;;30.20;62.70;;;;;;4897064;29;20034;-78
2022/07/23 08:47:52;;;;;;;0.50;0.47;;;29.00;61.40;;;;;;4909821;29;20050;-82
2022/07/23 08:50:18;;;;;;;2.75;1.38;;;27.60;65.00;;;;;;4924920;29;20058;-82
2022/07/23 08:52:45;;;;;;;;;;;26.60;67.40;;;;;;4927609;29;20073;-81
2022/07/23 08:55:11;;;;;;;9.80;1.65;;;26.10;67.50;;;;;;4926448;29;19997;-82
2022/07/23 08:57:37;;;;;;;1.08;0.82;;;26.80;68.70;;;;;;4928970;29;20424;-81
2022/07/23 09:00:04;;;;;;;0.28;0.28;;;27.00;67.90;;;;;;4927141;29;20040;-82
2022/07/23 09:02:30;;;;;;;8.57;1.73;;;28.50;66.50;;;;;;4925956;29;20040;-81
2022/07/23 09:04:56;;;;;;;0.55;0.55;;;29.60;64.80;;;;;;4928756;29;20407;-82
2022/07/23 09:07:21;;;;;;;0.40;0.30;;;28.40;65.30;;;;;;4930765;29;20431;-83
2022/07/23 09:10:06;;;;;;;0.20;0.20;;;28.60;66.00;;;;;;4929228;29;20257;-83
2022/07/23 09:12:32;;;;;;;0.10;0.10;;;28.00;65.10;;;;;;4926483;29;20115;-82
2022/07/23 09:15:06;;;;;;;3.13;0.28;;;27.60;66.00;;;;;;4928198;29;21039;-82
2022/07/23 09:17:41;;;;;;;0.47;0.47;;;31.10;63.40;;;;;;4937484;29;20039;-82
2022/07/23 09:20:17;;;;;;;1.98;0.63;;;34.00;57.20;;;;;;4945409;29;20027;-83
2022/07/23 09:22:46;;;;;;;;;;;36.60;54.20;;;;;;4945581;29;20042;-82
2022/07/23 09:25:17;;;;;;;0.10;0.10;;;36.60;50.10;;;;;;4957332;28;19914;-81
2022/07/23 09:27:54;;;;;;;0.68;0.55;;;36.30;51.40;;;;;;4945331;28;20507;-81
2022/07/23 09:30:28;;;;;;;0.43;0.43;;;37.90;48.40;;;;;;4942189;28;20062;-85
2022/07/23 09:33:15;;;;;;;0.17;0.17;;;34.30;51.00;;;;;;4940495;29;20506;-82
2022/07/23 09:35:48;;;;;;;0.10;0.10;;;31.00;55.10;;;;;;4943422;29;20098;-84
2022/07/23 09:38:14;;;;;;;0.15;0.15;;;29.50;57.80;;;;;;4944901;29;20515;-83
2022/07/23 09:40:40;;;;;;;0.15;0.15;;;28.60;59.30;;;;;;4940512;29;20059;-83
2022/07/23 09:43:06;;;;;;;;;;;30.30;60.20;;;;;;4955765;28;20530;-82
2022/07/23 09:45:31;;;;;;;0.22;0.22;;;35.90;52.60;;;;;;4945823;28;19910;-83
2022/07/23 09:48:14;;;;;;;0.10;0.10;;;36.80;48.70;;;;;;4944960;29;20071;-82
2022/07/23 09:50:44;;;;;;;0.15;0.15;;;32.70;51.40;;;;;;4942407;29;20067;-82
2022/07/23 09:53:24;;;;;;;0.20;0.10;;;34.30;53.40;;;;;;4943074;29;20110;-83
2022/07/23 09:55:56;;;;;;;0.30;0.30;;;37.00;50.10;;;;;;4942974;29;20066;-81
2022/07/23 09:58:25;;;;;;;0.43;0.43;;;38.00;47.80;;;;;;4942076;29;20015;-83
2022/07/23 10:00:52;;;;;;;0.63;0.40;;;36.60;49.50;;;;;;4944358;28;20383;-83
2022/07/23 10:03:20;;;;;;;0.45;0.45;;;34.90;46.30;;;;;;4944209;29;20024;-82
2022/07/23 10:05:47;;;;;;;0.25;0.25;;;30.80;52.80;;;;;;4945506;28;20067;-82
2022/07/23 10:08:16;;;;;;;0.15;0.13;;;31.80;55.40;;;;;;4944678;28;20019;-82
2022/07/23 10:10:42;;;;;;;0.47;0.47;;;33.60;49.90;;;;;;4943721;29;20094;-82
2022/07/23 10:15:52;;;;;;;0.35;0.30;;;33.80;50.30;;;;;;4946493;28;21706;-82
2022/07/23 10:18:18;;;;;;;0.70;0.43;;;31.00;54.00;;;;;;4944260;29;20067;-82
2022/07/23 10:20:47;;;;;;;4.28;1.17;;;30.20;54.70;;;;;;4941985;29;20035;-83
2022/07/23 10:23:22;;;;;;;0.28;0.28;;;29.60;54.70;;;;;;4942662;29;20027;-82
2022/07/23 10:26:12;;;;;;;0.63;0.43;;;29.20;55.50;;;;;;4943205;29;20035;-83
2022/07/23 10:29:07;;;;;;;0.05;0.05;;;29.90;56.10;;;;;;4926663;29;20035;-82
2022/07/23 10:32:04;;;;;;;0.13;0.13;;;29.90;55.30;;;;;;4943738;29;20035;-82
2022/07/23 10:34:47;;;;;;;0.17;0.17;;;29.10;55.90;;;;;;4943435;29;21012;-82
2022/07/23 10:37:42;;;;;;;2.53;0.10;;;29.40;55.90;;;;;;4942484;29;20042;-82
2022/07/23 10:40:22;;;;;;;0.75;0.30;;;28.90;57.20;;;;;;4922849;29;20042;-82
2022/07/23 10:42:51;;;;;;;0.22;0.22;;;29.10;56.60;;;;;;4926894;29;20090;-83
2022/07/23 10:45:31;;;;;;;0.28;0.20;;;28.90;56.70;;;;;;4947417;29;20037;-83
2022/07/23 10:48:14;;;;;;;0.10;0.10;;;29.70;57.70;;;;;;4943390;29;20118;-82
2022/07/23 10:50:41;;;;;;;0.30;0.22;;;29.50;58.10;;;;;;4945460;29;20849;-82
2022/07/23 10:53:11;;;;;;;0.10;0.10;;;30.60;56.70;;;;;;4943611;29;20038;-82
2022/07/23 10:55:37;;;;;;;0.35;0.35;;;31.10;54.10;;;;;;4944996;29;20562;-82
2022/07/23 10:58:04;;;;;;;0.13;0.13;;;31.30;54.30;;;;;;4943243;29;20045;-82
2022/07/23 11:00:35;;;;;;;0.43;0.20;;;31.30;53.90;;;;;;4945334;29;20110;-83
2022/07/23 11:03:25;;;;;;;0.22;0.22;;;30.10;55.90;;;;;;4942303;29;20031;-82
2022/07/23 11:05:51;;;;;;;0.50;0.30;;;29.90;57.30;;;;;;4944693;29;20023;-83
2022/07/23 11:08:19;;;;;;;0.20;0.20;;;30.50;54.60;;;;;;4943952;29;20031;-83
2022/07/23 11:11:08;;;;;;;0.68;0.40;;;30.40;55.20;;;;;;4943478;29;20050;-82
2022/07/23 11:13:40;;;;;;;0.30;0.30;;;30.70;54.60;;;;;;4942168;29;20406;-83
2022/07/23 11:16:19;;;;;;;1.00;0.63;;;31.00;54.30;;;;;;4940012;29;20059;-82
2022/07/23 11:18:53;;;;;;;1.67;0.20;;;30.50;54.60;;;;;;4943105;29;20038;-82
2022/07/23 11:21:28;;;;;;;0.05;0.05;;;30.40;55.20;;;;;;4942069;29;20031;-87
2022/07/23 11:23:58;;;;;;;0.70;0.70;;;30.40;54.40;;;;;;4939613;29;20034;-81
2022/07/23 11:26:55;;;;;;;0.38;0.22;;;29.70;53.80;;;;;;4943186;29;20118;-81
2022/07/23 11:32:15;;;;;;;0.70;0.47;;;28.20;56.10;;;;;;4943733;29;20034;-81
2022/07/23 11:34:46;;;;;;;0.55;0.55;;;28.10;56.40;;;;;;4927515;29;20051;-81
2022/07/23 11:37:32;;;;;;;0.28;0.28;;;28.20;57.20;;;;;;4944670;29;20019;-81
2022/07/23 11:39:58;;;;;;;0.00;0.00;;;28.30;55.90;;;;;;4944006;29;20098;-83
2022/07/23 11:42:24;;;;;;;;;;;28.90;56.60;;;;;;4924494;29;20402;-82
2022/07/23 11:44:50;;;;;;;0.63;0.22;;;29.20;55.30;;;;;;4944584;29;20087;-82
2022/07/23 11:47:24;;;;;;;0.20;0.20;;;29.40;56.20;;;;;;4945197;29;20518;-82
2022/07/23 11:49:55;;;;;;;0.15;0.15;;;29.80;55.50;;;;;;4941385;29;20051;-82
2022/07/23 11:52:22;;;;;;;0.30;0.25;;;29.60;56.30;;;;;;4944519;29;20446;-82
2022/07/23 11:55:03;;;;;;;0.40;0.32;;;28.90;54.80;;;;;;4943004;29;20518;-82
2022/07/23 11:57:35;;;;;;;1.55;0.70;;;28.70;56.50;;;;;;4938879;29;20483;-82
2022/07/23 12:00:07;;;;;;;0.25;0.25;;;28.50;57.50;;;;;;4940122;29;20042;-83
2022/07/23 12:02:32;;;;;;;0.63;0.40;;;28.20;54.80;;;;;;4944046;29;20174;-82
2022/07/23 12:04:58;;;;;;;0.30;0.30;;;27.60;56.20;;;;;;4944211;29;20122;-82
2022/07/23 12:07:36;;;;;;;0.30;0.30;;;28.40;56.30;;;;;;4944118;29;20051;-82
2022/07/23 12:10:13;;;;;;;0.30;0.22;;;29.20;57.80;;;;;;4945224;29;20113;-82
2022/07/23 12:12:44;;;;;;;0.22;0.22;;;29.00;56.40;;;;;;4945941;29;20106;-82
2022/07/23 12:15:12;;;;;;;0.20;0.20;;;28.90;57.60;;;;;;4931733;29;20043;-82
2022/07/23 12:17:40;;;;;;;0.30;0.20;;;28.60;56.10;;;;;;4944054;29;20040;-82
2022/07/23 12:20:09;;;;;;;0.47;0.47;;;27.90;56.00;;;;;;4944927;29;20090;-82
2022/07/23 12:22:40;;;;;;;0.20;0.20;;;27.30;56.80;;;;;;4923882;28;20122;-83
2022/07/23 12:25:13;;;;;;;0.45;0.45;;;27.00;57.30;;;;;;4927823;29;20031;-82
2022/07/23 12:27:39;;;;;;;0.22;0.22;;;27.20;58.20;;;;;;4944429;29;20121;-85
2022/07/23 12:30:28;;;;;;;0.00;0.00;;;27.20;58.20;;;;;;4943594;29;20039;-81
2022/07/23 12:32:57;;;;;;;1.45;1.00;;;27.30;57.80;;;;;;4926036;29;20033;-81
2022/07/23 12:35:29;;;;;;;0.98;0.73;;;27.10;57.00;;;;;;4925351;29;20027;-82
2022/07/23 12:38:04;;;;;;;0.40;0.40;;;27.20;58.20;;;;;;4945711;29;20035;-82
2022/07/23 12:40:38;;;;;;;0.20;0.20;;;27.40;59.10;;;;;;4941108;29;20027;-80
2022/07/23 12:43:22;;;;;;;0.10;0.10;;;27.60;59.00;;;;;;4944903;29;20049;-81
2022/07/23 12:45:51;;;;;;;0.10;0.10;;;27.40;58.20;;;;;;4946053;29;20039;-80
2022/07/23 12:48:26;;;;;;;0.55;0.55;;;27.40;58.40;;;;;;4946847;29;20452;-80
2022/07/23 12:50:53;;;;;;;0.13;0.13;;;27.20;58.50;;;;;;4946098;29;20502;-80
2022/07/23 12:53:24;;;;;;;0.30;0.30;;;27.10;58.40;;;;;;4922220;29;20027;-80
2022/07/23 12:55:58;;;;;;;0.20;0.20;;;26.80;57.50;;;;;;4926202;29;20567;-82
2022/07/23 12:58:23;;;;;;;2.28;0.38;;;26.90;58.40;;;;;;4943211;29;20051;-82
2022/07/23 13:00:56;;;;;;;0.20;0.10;;;27.10;58.40;;;;;;4947043;29;20039;-83